Latest Weather Observations for Minlaton Airport

IDS60801

Issued at 5:01 am CDT Monday 20 February 2017 (issued every 30 minutes, with the page automatically refreshed every 10 minutes)

About weather observations | Map of weather stations | Latest weather observations for SA | Other Formats
Station Details ID: 022031 Name: MINLATON AERO Lat: -34.75 Lon: 137.53 Height: 32.0 m
Data from the previous 72 hours. | See also: Recent months at Minlaton Airport
Date/Time
CDT
Temp
°C
App
Temp
°C
Dew
Point
°C
Rel
Hum
%
Delta-T
°C
Wind Press
QNH
hPa
Press
MSL
hPa
Rain since
9am
mm
Dir  Spd
km/h
Gust
km/h
Spd
kts
Gust
kts
20/05:00am 11.4 10.0 9.7 89 0.9 SSE 7 9 4 5 1016.9 1016.8 0.0
20/04:30am 12.1 9.4 10.5 90 0.8 SE 15 17 8 9 1016.8 1016.7 0.0
20/04:00am 11.0 8.5 9.6 91 0.7 SE 13 15 7 8 1016.8 1016.7 0.0
20/03:30am 11.3 8.3 9.4 88 1.0 S 15 17 8 9 1016.9 1016.8 0.0
20/03:00am 11.1 8.1 9.2 88 0.9 SSE 15 15 8 8 1016.9 1016.8 0.0
20/02:30am 11.1 8.4 9.0 87 1.0 SSE 13 15 7 8 1017.0 1016.9 0.0
20/02:00am 11.0 7.9 8.8 86 1.1 S 15 15 8 8 1017.2 1017.1 0.0
20/01:30am 11.5 8.1 9.2 86 1.2 S 17 19 9 10 1017.6 1017.5 0.0
20/01:00am 11.6 8.2 9.0 84 1.3 S 17 17 9 9 1017.6 1017.5 0.0
20/12:30am 11.7 8.2 8.9 83 1.4 S 17 19 9 10 1017.6 1017.5 0.0
20/12:00am 13.6 10.3 9.6 77 2.0 S 17 20 9 11 1017.5 1017.4 0.0
 
Date/Time
CDT
Temp
°C
App
Temp
°C
Dew
Point
°C
Rel
Hum
%
Delta-T
°C
Wind Press
QNH
hPa
Press
MSL
hPa
Rain since
9am
mm
Dir  Spd
km/h
Gust
km/h
Spd
kts
Gust
kts
19/11:30pm 14.3 11.1 10.1 76 2.2 SSW 17 20 9 11 1017.7 1017.6 0.0
19/11:00pm 15.2 11.6 10.4 73 2.5 SSW 20 24 11 13 1017.7 1017.6 0.0
19/10:30pm 14.9 11.4 10.9 77 2.1 SSW 20 30 11 16 1017.8 1017.7 0.0
19/10:00pm 14.9 11.2 10.3 74 2.4 SW 20 28 11 15 1017.9 1017.8 0.0
19/09:30pm 14.7 11.6 10.3 75 2.3 SW 17 20 9 11 1017.6 1017.5 0.0
19/09:00pm 15.6 11.1 9.9 69 3.0 SW 24 32 13 17 1017.3 1017.2 0.0
19/08:30pm 16.2 11.2 9.4 64 3.5 SW 26 33 14 18 1017.2 1017.1 0.0
19/08:00pm 17.4 11.4 8.5 56 4.6 SW 30 39 16 21 1016.9 1016.8 0.0
19/07:30pm 17.9 12.7 8.7 55 4.8 SW 26 35 14 19 1016.7 1016.6 0.0
19/07:00pm 18.3 12.0 8.8 54 4.9 WSW 32 39 17 21 1016.4 1016.3 0.0
19/06:30pm 19.2 12.9 8.8 51 5.4 SW 32 41 17 22 1016.3 1016.2 0.0
19/06:00pm 19.4 12.8 8.7 50 5.6 SW 33 44 18 24 1016.2 1016.1 0.0
19/05:30pm 20.3 14.2 11.8 58 4.7 WSW 35 46 19 25 1016.1 1016.0 0.0
19/05:00pm 18.6 12.7 10.4 59 4.4 WSW 32 41 17 22 1016.3 1016.2 0.0
19/04:30pm 20.5 14.4 8.2 45 6.4 WSW 30 39 16 21 1016.4 1016.3 0.0
19/04:00pm 19.1 13.0 9.6 54 5.0 SW 32 43 17 23 1016.5 1016.4 0.0
19/03:30pm 18.9 12.8 10.5 58 4.5 WSW 33 46 18 25 1016.7 1016.6 0.0
19/03:00pm 18.5 11.6 10.3 59 4.4 WSW 37 46 20 25 1017.0 1016.9 0.0
19/02:30pm 19.6 13.0 8.6 49 5.7 SW 33 43 18 23 1017.3 1017.2 0.0
19/02:00pm 19.2 14.0 8.8 51 5.4 WSW 26 37 14 20 1017.3 1017.2 0.0
19/01:30pm 19.8 13.6 7.9 46 6.1 WSW 30 39 16 21 1017.3 1017.2 0.0
19/01:00pm 19.3 12.6 8.3 49 5.7 SW 33 44 18 24 1017.5 1017.4 0.0
19/12:44pm 19.5 13.1 8.5 49 5.7 WSW 32 46 17 25 1017.5 1017.4 0.0
19/12:30pm 19.4 14.8 8.1 48 5.8 SW 22 32 12 17 1017.7 1017.6 0.0
19/12:00pm 18.6 12.1 8.3 51 5.3 SSW 32 43 17 23 1018.0 1017.9 0.0
19/11:30am 19.3 12.9 7.1 45 6.2 SW 30 41 16 22 1018.1 1018.0 0.0
19/11:00am 21.0 14.6 5.0 35 7.9 SW 28 39 15 21 1018.0 1017.9 0.0
19/10:30am 19.4 13.1 5.8 41 6.7 SW 28 37 15 20 1018.1 1018.0 0.0
19/10:00am 18.0 10.9 6.2 46 5.8 SW 33 41 18 22 1018.0 1017.9 0.0
19/09:30am 17.4 11.4 8.5 56 4.6 SW 30 39 16 21 1018.0 1017.9 0.0
19/09:00am 17.3 12.4 8.4 56 4.6 SW 24 33 13 18 1017.9 1017.8 1.2
19/08:30am 16.7 12.2 9.9 64 3.6 SW 24 30 13 16 1017.7 1017.6 1.2
19/08:00am 15.6 11.9 9.3 66 3.3 SSW 19 26 10 14 1017.6 1017.5 1.2
19/07:30am 14.6 11.7 9.6 72 2.6 SW 15 17 8 9 1017.4 1017.3 1.2
19/07:00am 14.4 10.4 9.0 70 2.7 SW 20 28 11 15 1017.4 1017.3 1.2
19/06:30am 14.3 10.8 7.4 63 3.4 SW 15 19 8 10 1017.1 1017.0 1.2
19/06:00am 14.4 9.1 8.6 68 2.9 SSW 26 33 14 18 1017.0 1016.9 1.2
19/05:30am 14.5 9.9 8.2 66 3.2 SSW 22 28 12 15 1017.1 1017.0 1.2
19/05:00am 14.6 11.0 8.5 67 3.1 SSW 17 24 9 13 1016.8 1016.7 1.2
19/04:30am 14.3 11.2 8.7 69 2.8 S 15 20 8 11 1017.0 1016.9 1.2
19/04:00am 14.7 9.8 8.6 67 3.1 S 24 33 13 18 1017.1 1017.0 1.2
19/03:30am 14.8 10.7 7.8 63 3.5 SSW 19 24 10 13 1017.1 1017.0 1.2
19/03:00am 14.6 10.6 8.1 65 3.2 SSW 19 22 10 12 1017.2 1017.1 1.2
19/02:30am 14.0 10.7 8.0 67 3.0 SSW 15 17 8 9 1017.4 1017.3 1.2
19/02:00am 14.2 10.0 7.5 64 3.3 SSW 19 24 10 13 1017.8 1017.7 1.2
19/01:30am 14.7 10.4 7.7 63 3.5 SSW 20 26 11 14 1018.1 1018.0 1.2
19/01:00am 14.9 9.8 7.7 62 3.6 SSW 24 32 13 17 1018.4 1018.3 1.2
19/12:30am 14.9 9.3 8.6 66 3.2 SSW 28 37 15 20 1018.3 1018.2 1.2
19/12:00am 13.4 9.3 7.8 69 2.8 SSW 19 20 10 11 1018.3 1018.2 1.2
 
Date/Time
CDT
Temp
°C
App
Temp
°C
Dew
Point
°C
Rel
Hum
%
Delta-T
°C
Wind Press
QNH
hPa
Press
MSL
hPa
Rain since
9am
mm
Dir  Spd
km/h
Gust
km/h
Spd
kts
Gust
kts
18/11:30pm 13.6 9.2 7.4 66 3.0 SSW 20 24 11 13 1018.2 1018.1 1.2
18/11:00pm 13.8 9.8 8.2 69 2.8 SSW 19 24 10 13 1018.1 1018.0 1.2
18/10:30pm 13.5 9.7 7.7 68 2.8 SSW 17 20 9 11 1018.2 1018.1 1.2
18/10:00pm 14.5 9.4 7.5 63 3.5 SSW 24 30 13 16 1018.2 1018.1 1.2
18/09:30pm 14.5 9.4 7.5 63 3.4 SW 24 32 13 17 1018.0 1017.9 1.2
18/09:00pm 14.3 8.7 7.1 62 3.5 SSW 26 35 14 19 1017.7 1017.6 1.2
18/08:30pm 15.1 9.4 6.9 58 4.0 SSW 26 39 14 21 1017.4 1017.3 1.2
18/08:00pm 15.4 8.6 5.3 51 4.8 SW 30 37 16 20 1017.2 1017.1 1.2
18/07:30pm 16.9 9.2 5.2 46 5.6 SW 35 44 19 24 1016.6 1016.5 1.2
18/07:00pm 18.2 10.9 5.4 43 6.2 SW 33 44 18 24 1016.4 1016.3 1.2
18/06:30pm 18.7 10.8 4.1 38 6.9 SW 35 46 19 25 1016.1 1016.0 1.2
18/06:00pm 19.6 11.7 4.1 36 7.4 SW 35 44 19 24 1016.0 1015.9 1.2
18/05:30pm 20.8 13.3 6.4 39 7.3 SSW 35 46 19 25 1015.9 1015.8 1.2
18/05:00pm 18.8 11.7 5.3 41 6.6 SW 32 39 17 21 1016.1 1016.0 1.2
18/04:30pm 20.0 13.2 5.3 38 7.2 SW 30 41 16 22 1016.1 1016.0 1.0
18/04:00pm 17.8 11.8 7.2 50 5.3 SW 28 35 15 19 1016.4 1016.3 1.0
18/03:30pm 15.3 10.5 11.7 79 1.9 SW 28 46 15 25 1016.9 1016.8 1.0
18/03:00pm 16.4 10.3 11.8 74 2.5 SW 35 54 19 29 1017.1 1017.0 0.8
18/02:44pm 18.8 12.6 7.9 49 5.6 SW 30 50 16 27 1016.7 1016.6 0.8
18/02:30pm 18.6 11.7 6.4 45 6.1 SW 32 43 17 23 1016.8 1016.7 0.8
18/02:00pm 18.2 13.3 6.7 47 5.7 SSW 22 32 12 17 1016.9 1016.8 0.8
18/01:30pm 18.9 12.3 6.1 43 6.3 SW 30 41 16 22 1016.8 1016.7 0.8
18/01:00pm 18.7 11.5 7.8 49 5.6 SW 35 44 19 24 1016.8 1016.7 0.8
18/12:39pm 18.0 11.8 9.4 57 4.5 SW 32 50 17 27 1016.7 1016.6 0.8
18/12:30pm 18.2 12.2 10.1 59 4.3 WSW 32 46 17 25 1016.8 1016.7 0.8
18/12:00pm 14.2 7.0 10.4 78 2.0 SW 39 48 21 26 1017.2 1017.1 0.8
18/11:30am 17.3 10.2 7.9 54 4.8 SSW 35 46 19 25 1016.9 1016.8 0.6
18/11:00am 17.3 10.6 8.2 55 4.6 SSW 33 44 18 24 1016.8 1016.7 0.6
18/10:30am 15.9 11.6 10.7 71 2.8 SW 24 39 13 21 1016.6 1016.5 0.6
18/10:00am 14.3 7.8 10.5 78 2.0 SW 35 56 19 30 1016.8 1016.7 0.4
18/09:56am 16.7 10.9 9.6 63 3.7 SW 30 48 16 26 1016.6 1016.5 0.0
18/09:30am 18.3 11.6 7.4 49 5.5 SW 32 41 17 22 1016.4 1016.3 0.0
18/09:00am 16.6 10.6 8.8 60 4.0 SW 30 37 16 20 1016.2 1016.1 0.0
18/08:30am 16.9 11.0 9.1 60 4.0 SSW 30 35 16 19 1016.0 1015.9 0.0
18/08:00am 15.6 11.9 9.3 66 3.3 SW 19 26 10 14 1015.8 1015.7 0.0
18/07:30am 15.1 8.6 8.3 64 3.4 SW 32 41 17 22 1015.5 1015.4 0.0
18/07:00am 14.7 10.2 7.0 60 3.8 SW 20 30 11 16 1015.0 1014.9 0.0
18/06:30am 14.8 10.8 8.3 65 3.3 SSW 19 24 10 13 1014.8 1014.7 0.0
18/06:00am 15.8 9.9 7.3 57 4.2 SW 28 37 15 20 1014.5 1014.4 0.0
18/05:30am 15.9 10.3 7.1 56 4.4 SW 26 35 14 19 1014.2 1014.1 0.0
18/05:00am 15.8 9.9 7.3 57 4.2 SW 28 35 15 19 1014.2 1014.1 0.0
18/04:30am 15.2 9.6 7.0 58 4.0 SW 26 32 14 17 1014.2 1014.1 0.0
18/04:00am 15.4 10.5 8.4 63 3.5 SW 24 32 13 17 1014.7 1014.6 0.0
18/03:30am 16.0 9.7 9.0 63 3.6 SW 32 41 17 22 1014.8 1014.7 0.0
18/03:00am 16.4 10.8 8.9 61 3.9 SW 28 33 15 18 1014.5 1014.4 0.0
18/02:30am 15.6 10.3 8.4 62 3.6 SW 26 33 14 18 1014.7 1014.6 0.0
18/02:00am 16.6 10.1 8.1 57 4.3 SW 32 41 17 22 1014.7 1014.6 0.0
18/01:30am 16.5 11.0 9.0 61 3.9 SW 28 39 15 21 1015.2 1015.1 0.0
18/01:00am 16.5 11.8 10.6 68 3.1 SW 26 33 14 18 1015.2 1015.1 0.0
18/12:30am 16.8 12.0 9.0 60 4.0 SW 24 32 13 17 1015.2 1015.1 0.0
18/12:00am 15.8 11.6 8.3 61 3.8 SW 20 26 11 14 1015.2 1015.1 0.0
 
Date/Time
CDT
Temp
°C
App
Temp
°C
Dew
Point
°C
Rel
Hum
%
Delta-T
°C
Wind Press
QNH
hPa
Press
MSL
hPa
Rain since
9am
mm
Dir  Spd
km/h
Gust
km/h
Spd
kts
Gust
kts
17/11:30pm 16.4 11.0 7.9 57 4.3 SW 26 32 14 17 1015.4 1015.3 0.0
17/11:00pm 16.9 11.4 9.1 60 4.0 SW 28 33 15 18 1015.5 1015.4 0.0
17/10:30pm 17.2 12.5 9.4 60 4.1 SW 24 32 13 17 1015.5 1015.4 0.0
17/10:00pm 17.5 13.1 10.4 63 3.8 SW 24 32 13 17 1015.8 1015.7 0.0
17/09:30pm 17.9 12.0 10.5 62 4.0 SW 32 39 17 21 1015.6 1015.5 0.0
17/09:00pm 18.1 13.1 11.0 63 3.8 SSW 28 37 15 20 1015.1 1015.0 0.0
17/08:30pm 18.3 13.3 9.6 57 4.6 SW 26 33 14 18 1014.9 1014.8 0.0
17/08:00pm 19.0 13.1 9.2 53 5.2 WSW 30 39 16 21 1014.5 1014.4 0.0
17/07:30pm 19.7 13.4 10.9 57 4.8 WSW 35 43 19 23 1014.1 1014.0 0.0
17/07:00pm 19.8 13.9 11.0 57 4.8 WSW 33 44 18 24 1014.0 1013.9 0.0
17/06:30pm 20.4 13.8 12.6 61 4.4 WSW 39 46 21 25 1013.7 1013.6 0.0
17/06:00pm 21.1 15.9 12.8 59 4.7 WSW 32 39 17 21 1013.4 1013.3 0.0
17/05:30pm 20.5 15.3 13.5 64 4.0 WSW 33 44 18 24 1013.5 1013.4 0.0
17/05:00pm 21.2 15.6 13.4 61 4.5 WSW 35 43 19 23 1013.3 1013.2 0.0
17/04:30pm 20.7 15.5 13.4 63 4.2 W 33 43 18 23 1013.3 1013.2 0.0
17/04:00pm 22.6 17.8 13.9 58 5.1 WSW 32 43 17 23 1013.5 1013.4 0.0
17/03:30pm 18.9 13.0 15.6 81 1.9 WSW 41 59 22 32 1013.9 1013.8 0.0
17/03:29pm 18.7 12.2 15.0 79 2.2 WSW 43 59 23 32 1013.8 1013.7 0.0
17/03:00pm 22.8 16.0 11.8 50 6.2 W 39 48 21 26 1013.5 1013.4 0.0
17/02:30pm 22.9 17.0 11.3 48 6.5 W 33 44 18 24 1013.7 1013.6 0.0
17/02:00pm 22.3 17.0 13.1 56 5.3 W 33 43 18 23 1013.8 1013.7 0.0
17/01:30pm 22.2 16.7 11.9 52 5.8 WSW 32 41 17 22 1013.9 1013.8 0.0
17/01:00pm 22.5 18.7 12.4 52 5.7 WSW 24 32 13 17 1014.0 1013.9 0.0
17/12:30pm 20.1 16.4 12.8 63 4.1 WSW 24 30 13 16 1014.5 1014.4 0.0
17/12:00pm 19.3 15.2 13.7 70 3.2 WSW 28 35 15 19 1014.7 1014.6 0.0
17/11:30am 20.3 15.2 11.8 58 4.7 SW 30 37 16 20 1014.7 1014.6 0.0
17/11:00am 19.9 15.6 10.9 56 4.9 WSW 24 33 13 18 1014.7 1014.6 0.0
17/10:30am 19.5 15.0 10.2 55 5.0 WSW 24 32 13 17 1014.6 1014.5 0.0
17/10:00am 19.0 15.1 10.8 59 4.4 WSW 22 32 12 17 1014.3 1014.2 0.0
17/09:30am 19.1 15.4 10.1 56 4.8 WSW 20 28 11 15 1014.2 1014.1 0.0
17/09:00am 18.9 15.7 9.9 56 4.8 WSW 17 20 9 11 1014.1 1014.0 0.0
17/08:30am 18.5 14.0 8.7 53 5.1 WSW 22 28 12 15 1013.7 1013.6 0.0
17/08:00am 18.1 13.8 9.2 56 4.7 SW 22 30 12 16 1013.4 1013.3 0.0
17/07:30am 17.3 14.2 10.2 63 3.8 SW 17 20 9 11 1012.9 1012.8 0.0
17/07:00am 16.8 13.2 10.0 64 3.6 SW 19 22 10 12 1012.7 1012.6 0.0
17/06:30am 15.2 14.0 10.2 72 2.6 SSW 7 9 4 5 1012.5 1012.4 0.0
17/06:00am 13.8 12.7 10.8 82 1.6 SSE 7 9 4 5 1012.2 1012.1 0.0
17/05:30am 12.1 10.3 9.5 84 1.3 SE 9 11 5 6 1012.1 1012.0 0.0

Other Formats:

Comma delimited format used in spreadsheet applications
http://www.bom.gov.au/fwo/IDS60801/IDS60801.95659.axf

JavaScript Object Notation format (JSON) in row-major order
http://www.bom.gov.au/fwo/IDS60801/IDS60801.95659.json